METAR Data
IDs: Format: Raw Decoded Include TAF

Data at: 1411 UTC 21 Apr 2021

METAR for:KIKV (Ankeny Rgnl, IA, US)
Text:KIKV 211355Z AUTO 31006G12KT 10SM FEW011 FEW065 FEW090 01/M03 A3021 RMK AO2
Temperature: 1.0°C ( 34°F)
Dewpoint: -3.0°C ( 27°F) [RH = 75%]
Pressure (altimeter):30.21 inches Hg (1023.1 mb)
Winds:from the NW (310 degrees) at 7 MPH (6 knots; 3.1 m/s) gusting to 14 MPH (12 knots; 6.2 m/s)
Visibility:10 or more sm (16+ km)
Ceiling:at least 12,000 feet AGL
Clouds: few clouds at 1100 feet AGL, few clouds at 6500 feet AGL, few clouds at 9000 feet AGL
QC Flag:automated observation with no human augmentation